»·PEaware :: QXE2199 KPDX-KMFR

QXE2199 :: KPDX-KMFR

FLIGHT INFORMATION

Flight Status: Arrived
Operator:
Horizon Air
More flights by this operator :: More flights under this callsign
Pilot: Andre N. (13929)
Aircraft: DEHAVILLAND DASH 8 400
(DH8D)
More flights by this aircraft type
Origin: KPDX Portland Intl
United States
Destination: KMFR Rogue Valley Intl-Medford
United States
More flights between these airports :: More routes between these airports
Route: +PTLD1 BTG V23 OED
File this flight plan on PilotEdge
Remarks:
Altitude:
(Current/Filed)
17,000ft
Speed:
(Current/Filed)
350kts
Departed: 13-Feb-18 04:15 PM
Arrived: 13-Feb-18 05:00 PM
Distance/Time
Traveled:
193nm/0:45
Distance/Time
To Go:
Arrived

Flight Plot

Page will automatically refresh every two minutes.

Flight plan parsing failed; only flown route is shown


Map Options




Map Legend


Flown Route
Filed Route
Departure Airport
Arrival Airport
Navaid (VOR, NDB)
Fix

Horizontal Profiles

Position Reports

Time Latitude Longitude Heading Altitude Ground
Speed
13-Feb-18 15:55 45.587087 -122.593721 32 30ft 0kts
13-Feb-18 15:56 45.587087 -122.593721 32 30ft 0kts
13-Feb-18 15:57 45.587087 -122.593721 32 30ft 0kts
13-Feb-18 15:58 45.587087 -122.593721 32 30ft 0kts
13-Feb-18 15:59 45.587087 -122.593721 32 30ft 0kts
13-Feb-18 16:00 45.587087 -122.593721 32 30ft 0kts
13-Feb-18 16:01 45.587087 -122.593721 32 30ft 0kts
13-Feb-18 16:02 45.587087 -122.593721 32 30ft 0kts
13-Feb-18 16:03 45.587087 -122.593721 32 30ft 0kts
13-Feb-18 16:04 45.587087 -122.593721 32 30ft 0kts
13-Feb-18 16:05 45.587087 -122.593721 32 30ft 0kts
13-Feb-18 16:06 45.587087 -122.593721 32 30ft 0kts
13-Feb-18 16:07 45.587087 -122.593721 32 30ft 0kts
13-Feb-18 16:08 45.587087 -122.593721 32 30ft 0kts
13-Feb-18 16:09 45.587087 -122.593721 32 30ft 0kts
13-Feb-18 16:10 45.587087 -122.593721 32 30ft 0kts
13-Feb-18 16:11 45.586989 -122.593808 31 30ft 2kts
13-Feb-18 16:12 45.586484 -122.593970 337 30ft 2kts
13-Feb-18 16:13 45.586293 -122.593767 308 30ft 0kts
13-Feb-18 16:14 45.586293 -122.593768 308 30ft 0kts
13-Feb-18 16:15 45.586383 -122.593925 308 30ft 6kts
13-Feb-18 16:16 45.587389 -122.596211 298 30ft 0kts
13-Feb-18 16:17 45.587852 -122.597385 298 30ft 13kts
13-Feb-18 16:18 45.589938 -122.602717 301 29ft 12kts
13-Feb-18 16:19 45.592838 -122.599773 44 30ft 16kts
13-Feb-18 16:20 45.594013 -122.598100 43 30ft 2kts
13-Feb-18 16:21 45.594833 -122.596552 82 30ft 12kts
13-Feb-18 16:22 45.588448 -122.579143 117 198ft 152kts
13-Feb-18 16:23 45.569133 -122.526344 117 3456ft 149kts
13-Feb-18 16:24 45.549549 -122.476518 117 6064ft 167kts
13-Feb-18 16:25 45.514623 -122.461362 245 8773ft 167kts
13-Feb-18 16:26 45.514717 -122.523974 274 11605ft 163kts
13-Feb-18 16:27 45.521255 -122.588139 264 14289ft 171kts
13-Feb-18 16:28 45.474832 -122.630415 209 15399ft 258kts
13-Feb-18 16:29 45.407423 -122.684053 212 16929ft 297kts
13-Feb-18 16:30 45.329782 -122.748948 212 17019ft 350kts
13-Feb-18 16:31 45.239508 -122.792605 198 17008ft 339kts
13-Feb-18 16:32 45.172240 -122.819149 197 17009ft 336kts
13-Feb-18 16:33 45.083510 -122.853842 197 17010ft 337kts
13-Feb-18 16:34 44.993066 -122.889112 195 17016ft 342kts
13-Feb-18 16:35 44.901709 -122.926317 197 17010ft 343kts
13-Feb-18 16:36 44.811873 -122.963935 195 17007ft 344kts
13-Feb-18 16:37 44.721620 -122.995847 194 17011ft 344kts
13-Feb-18 16:38 44.629748 -123.029422 195 17014ft 343kts
13-Feb-18 16:39 44.537922 -123.064545 196 17017ft 345kts
13-Feb-18 16:40 44.445777 -123.099725 196 17018ft 345kts
13-Feb-18 16:41 44.353388 -123.134905 196 17018ft 345kts
13-Feb-18 16:42 44.261425 -123.169797 196 17018ft 345kts
13-Feb-18 16:43 44.169177 -123.204674 196 17036ft 344kts
13-Feb-18 16:44 44.074929 -123.212953 174 17048ft 346kts
13-Feb-18 16:45 43.979957 -123.195549 173 17037ft 347kts
13-Feb-18 16:46 43.887678 -123.177794 173 17036ft 347kts
13-Feb-18 16:47 43.793170 -123.159632 173 17034ft 347kts
13-Feb-18 16:48 43.698201 -123.141442 173 17032ft 347kts
13-Feb-18 16:49 43.602979 -123.123261 173 17017ft 347kts
13-Feb-18 16:50 43.507661 -123.105121 172 16991ft 348kts
13-Feb-18 16:51 43.412518 -123.087070 172 16990ft 347kts
13-Feb-18 16:52 43.318591 -123.069312 172 16879ft 348kts
13-Feb-18 16:53 43.222944 -123.051275 172 15185ft 347kts
13-Feb-18 16:54 43.129530 -123.033709 172 13587ft 332kts
13-Feb-18 16:55 43.040543 -123.017023 172 11994ft 314kts
13-Feb-18 16:56 42.957485 -123.001524 171 10450ft 295kts
13-Feb-18 16:57 42.879815 -122.987298 174 8943ft 282kts
13-Feb-18 16:58 42.805356 -122.980059 174 8007ft 250kts
13-Feb-18 16:59 42.739850 -122.973693 174 8010ft 219kts
13-Feb-18 17:00 42.684146 -122.968489 174 8009ft 185kts
13-Feb-18 17:01 42.634295 -122.964019 174 8041ft 184kts
13-Feb-18 17:02 42.579746 -122.958857 174 7051ft 201kts
13-Feb-18 17:03 42.528501 -122.953735 174 6516ft 185kts
13-Feb-18 17:04 42.480963 -122.928957 157 5325ft 185kts
13-Feb-18 17:05 42.435050 -122.904988 156 3400ft 150kts
13-Feb-18 17:06 42.399889 -122.886451 159 1861ft 129kts
13-Feb-18 17:07 42.375413 -122.873474 159 1340ft 37kts
13-Feb-18 17:08 42.373427 -122.873277 219 1340ft 0kts
13-Feb-18 17:09 42.375170 -122.874954 338 1340ft 12kts
13-Feb-18 17:10 42.376164 -122.878344 289 1340ft 10kts
13-Feb-18 17:11 42.376054 -122.879662 211 1340ft 0kts

Navigation Log

Ident Type
Flight plan parsing failed, navigation log unavailable